Date,TemperatureHighF,TemperatureAvgF,TemperatureLowF,DewpointHighF,DewpointAvgF,DewpointLowF,HumidityHigh,HumidityAvg,HumidityLow,PressureMaxIn,PressureMinIn,WindSpeedMaxMPH,WindSpeedAvgMPH,GustSpeedMaxMPH,PrecipitationSumIn
2013-3-1,28.2,19.6,6.5,15.7,11.7,3.5,88,72,51,30.26,30.12,11,2,11,0.00
2013-3-2,29.5,14.4,-2.1,11.3,6.0,-5.0,92,71,40,30.24,30.13,9,1,9,0.00
2013-3-3,31.6,11.4,-9.5,10.5,0.7,-12.9,90,66,29,30.14,30.03,8,0,8,0.00
2013-3-4,34.0,19.3,-0.2,15.6,8.3,-3.4,89,65,39,30.11,30.02,7,1,7,0.00
2013-3-5,29.7,23.5,20.5,20.8,16.0,10.0,92,73,55,30.12,29.96,9,2,9,0.00
2013-3-6,31.8,23.3,9.5,21.6,17.9,6.3,93,81,59,30.26,30.12,9,1,9,0.00
2013-3-7,32.2,18.4,3.6,19.3,12.2,0.7,90,78,56,30.37,30.25,7,0,7,0.00
2013-3-8,41.6,25.7,8.0,24.0,17.7,5.6,92,74,46,30.38,30.18,10,1,10,0.03
2013-3-9,34.3,29.7,26.1,31.3,25.5,22.2,92,84,77,30.18,29.82,11,2,11,0.02
2013-3-10,34.0,31.5,26.6,32.7,30.2,25.6,98,95,90,29.83,29.67,5,1,13,0.05
2013-3-11,28.9,25.0,19.1,26.3,23.0,16.7,96,92,86,29.67,29.53,3,1,10,0.00
2013-3-12,25.1,20.3,16.3,20.4,16.8,13.4,92,86,73,29.96,29.63,4,1,15,0.00
2013-3-13,31.3,19.9,8.5,14.3,10.4,3.4,88,69,41,30.20,29.97,13,1,13,0.00
2013-3-14,34.9,16.2,-3.3,25.5,11.0,-6.2,90,81,43,30.20,29.91,8,1,8,0.01
2013-3-15,33.5,27.4,16.1,27.0,21.3,12.9,91,79,54,29.92,29.80,10,2,10,0.00
2013-3-16,24.2,17.0,8.0,13.3,10.0,4.1,89,74,59,30.13,29.85,14,2,17,0.00
2013-3-17,28.0,13.2,-6.9,10.5,1.7,-10.8,89,63,30,30.24,29.99,9,2,9,0.00
2013-3-18,27.2,20.6,13.7,24.7,17.8,9.6,94,89,79,30.00,29.44,12,2,12,0.00
2013-3-19,28.5,18.0,11.7,15.7,9.3,3.8,90,70,45,29.87,29.46,24,5,24,0.00
2013-3-20,21.0,12.3,2.3,7.9,3.3,-3.2,81,67,50,29.99,29.86,16,3,16,0.00
2013-3-21,29.4,16.5,5.0,16.1,10.2,2.3,90,77,56,29.98,29.93,10,1,10,0.00
2013-3-22,32.4,18.9,-2.3,22.4,13.0,-5.2,90,78,63,30.03,29.96,8,1,8,0.00
2013-3-23,34.2,27.1,21.1,23.2,20.5,17.6,88,76,62,30.10,30.02,7,1,7,0.00
2013-3-24,31.4,26.4,18.6,24.8,20.5,15.3,89,78,69,30.04,29.85,11,1,11,0.00
2013-3-25,36.1,25.4,13.5,24.7,20.0,11.5,95,80,57,30.10,29.87,13,1,13,0.00
2013-3-26,37.3,29.8,22.9,27.0,22.7,18.6,90,76,52,30.18,30.09,8,1,8,0.00
2013-3-27,42.2,32.4,23.8,23.7,20.4,15.7,83,62,41,30.22,30.17,11,1,11,0.00
2013-3-28,45.6,29.8,12.0,22.3,16.9,9.5,92,63,32,30.26,30.18,8,1,8,0.00
2013-3-29,50.6,33.6,13.7,22.6,18.1,11.8,93,59,27,30.25,30.07,9,1,9,0.00
2013-3-30,37.1,34.0,29.9,36.3,30.5,18.6,98,88,59,30.08,29.67,11,1,12,0.78
2013-3-31,36.4,30.6,21.0,32.6,25.3,10.6,98,82,48,29.85,29.56,17,3,17,0.01